Time;durP1;ratioP1;P1;durP2;ratioP2;P2;SDS_P1;SDS_P2;PMS_P1;PMS_P2;Temp;Humidity;BMP_temperature;BMP_pressure;BME280_temperature;BME280_humidity;BME280_pressure;Samples;Min_cycle;Max_cycle;Signal;HPM_P1;HPM_P2
2024/01/05 00:00:17;;;;;;;13.77;3.30;;;;;;;;;;5036856;28;20083;-63
2024/01/05 00:02:42;;;;;;;15.15;3.30;;;;;;;;;;5053784;28;20040;-64
2024/01/05 00:05:08;;;;;;;14.38;3.17;;;;;;;;;;5048783;28;20125;-63
2024/01/05 00:07:33;;;;;;;10.57;3.10;;;;;;;;;;5047868;28;20060;-62
2024/01/05 00:09:59;;;;;;;14.65;2.90;;;;;;;;;;5051014;28;20071;-64
2024/01/05 00:12:24;;;;;;;14.68;3.05;;;;;;;;;;5053813;28;20469;-63
2024/01/05 00:14:50;;;;;;;9.35;2.90;;;;;;;;;;5053467;28;20118;-64
2024/01/05 00:17:15;;;;;;;12.30;3.00;;;;;;;;;;5051905;28;20397;-63
2024/01/05 00:19:41;;;;;;;14.75;3.30;;;;;;;;;;5054642;28;20037;-63
2024/01/05 00:22:06;;;;;;;8.18;3.05;;;;;;;;;;5051873;28;20432;-62
2024/01/05 00:24:32;;;;;;;11.05;2.90;;;;;;;;;;5048776;28;20120;-62
2024/01/05 00:26:59;;;;;;;11.85;3.17;;;;;;;;;;5042380;28;20477;-63
2024/01/05 00:29:24;;;;;;;12.85;3.33;;;;;;;;;;5052198;28;21375;-62
2024/01/05 00:31:50;;;;;;;19.98;3.53;;;;;;;;;;5052630;28;20460;-63
2024/01/05 00:34:15;;;;;;;9.50;2.80;;;;;;;;;;5052024;28;20447;-62
2024/01/05 00:36:40;;;;;;;13.10;3.10;;;;;;;;;;5053331;28;20033;-62
2024/01/05 00:39:06;;;;;;;10.23;3.40;;;;;;;;;;5052548;28;20079;-62
2024/01/05 00:41:31;;;;;;;16.63;3.22;;;;;;;;;;5053695;28;20040;-63
2024/01/05 00:43:57;;;;;;;15.52;2.83;;;;;;;;;;5032924;28;20037;-62
2024/01/05 00:46:22;;;;;;;13.27;3.00;;;;;;;;;;5050851;28;20061;-62
2024/01/05 00:48:47;;;;;;;15.50;3.20;;;;;;;;;;5052262;28;20025;-62
2024/01/05 00:51:13;;;;;;;14.27;3.40;;;;;;;;;;5052085;28;20040;-63
2024/01/05 00:53:38;;;;;;;15.45;3.22;;;;;;;;;;5052893;28;20076;-61
2024/01/05 00:56:05;;;;;;;17.45;3.70;;;;;;;;;;5050275;28;20458;-62
2024/01/05 00:58:31;;;;;;;12.93;3.58;;;;;;;;;;5052532;28;20029;-63
2024/01/05 01:00:56;;;;;;;12.38;3.63;;;;;;;;;;5047988;28;20040;-62
2024/01/05 01:03:22;;;;;;;16.35;4.32;;;;;;;;;;5053808;28;20036;-63
2024/01/05 01:05:47;;;;;;;11.50;3.20;;;;;;;;;;5052400;28;20033;-61
2024/01/05 01:08:12;;;;;;;18.15;3.55;;;;;;;;;;5051190;28;20626;-63
2024/01/05 01:10:38;;;;;;;12.75;3.53;;;;;;;;;;5049717;28;20036;-62
2024/01/05 01:13:05;;;;;;;14.40;3.17;;;;;;;;;;5033037;28;20025;-63
2024/01/05 01:15:30;;;;;;;19.20;3.53;;;;;;;;;;5017856;28;20028;-63
2024/01/05 01:17:55;;;;;;;17.02;3.38;;;;;;;;;;5052742;28;20086;-63
2024/01/05 01:20:21;;;;;;;19.73;3.35;;;;;;;;;;5050571;28;20044;-64
2024/01/05 01:22:46;;;;;;;9.40;2.92;;;;;;;;;;5039403;28;20040;-62
2024/01/05 01:25:12;;;;;;;9.95;2.63;;;;;;;;;;5051507;28;20053;-63
2024/01/05 01:27:37;;;;;;;12.32;3.58;;;;;;;;;;5038950;28;20083;-63
2024/01/05 01:30:03;;;;;;;13.23;3.63;;;;;;;;;;5049030;28;20029;-63
2024/01/05 01:32:28;;;;;;;14.82;3.22;;;;;;;;;;5052211;28;20613;-62
2024/01/05 01:34:53;;;;;;;12.60;3.10;;;;;;;;;;5052245;28;20060;-63
2024/01/05 01:37:19;;;;;;;14.50;3.40;;;;;;;;;;5050325;28;20093;-63
2024/01/05 01:39:44;;;;;;;9.77;2.72;;;;;;;;;;5051622;28;20037;-62
2024/01/05 01:42:09;;;;;;;15.65;3.42;;;;;;;;;;5031956;28;20067;-63
2024/01/05 01:44:35;;;;;;;15.77;2.88;;;;;;;;;;5050623;28;20044;-62
2024/01/05 01:47:00;;;;;;;15.43;3.20;;;;;;;;;;5051034;28;20117;-63
2024/01/05 01:49:26;;;;;;;12.80;2.75;;;;;;;;;;5051032;28;20044;-63
2024/01/05 01:51:53;;;;;;;12.05;3.28;;;;;;;;;;5051924;28;20032;-63
2024/01/05 01:54:19;;;;;;;11.13;2.50;;;;;;;;;;5050639;28;20120;-64
2024/01/05 01:56:45;;;;;;;13.07;2.78;;;;;;;;;;5052086;28;20147;-62
2024/01/05 01:59:12;;;;;;;15.20;2.70;;;;;;;;;;5032587;28;20040;-63
2024/01/05 02:01:38;;;;;;;10.27;2.83;;;;;;;;;;5033020;28;20041;-62
2024/01/05 02:04:04;;;;;;;12.30;2.90;;;;;;;;;;5050912;28;20491;-63
2024/01/05 02:06:29;;;;;;;12.85;3.10;;;;;;;;;;5048865;28;20045;-62
2024/01/05 02:08:56;;;;;;;8.90;2.78;;;;;;;;;;5044086;28;20053;-63
2024/01/05 02:11:21;;;;;;;16.73;4.57;;;;;;;;;;5051682;28;20047;-62
2024/01/05 02:13:48;;;;;;;13.00;3.42;;;;;;;;;;5051919;28;20357;-61
2024/01/05 02:16:13;;;;;;;13.25;2.80;;;;;;;;;;5049004;28;20082;-62
2024/01/05 02:18:39;;;;;;;10.20;3.10;;;;;;;;;;5040396;28;20037;-62
2024/01/05 02:21:07;;;;;;;16.55;2.70;;;;;;;;;;5046520;28;20480;-61
2024/01/05 02:23:33;;;;;;;11.27;2.63;;;;;;;;;;5039009;28;20045;-61
2024/01/05 02:26:00;;;;;;;14.00;2.50;;;;;;;;;;5046675;28;20450;-62
2024/01/05 02:28:26;;;;;;;26.55;3.15;;;;;;;;;;5034188;28;20102;-61
2024/01/05 02:30:55;;;;;;;14.05;2.42;;;;;;;;;;5015758;28;20032;-61
2024/01/05 02:33:21;;;;;;;13.85;2.97;;;;;;;;;;5049233;28;20036;-61
2024/01/05 02:35:47;;;;;;;10.85;2.47;;;;;;;;;;5050937;28;20040;-61
2024/01/05 02:38:12;;;;;;;14.68;2.75;;;;;;;;;;5050216;28;20440;-61
2024/01/05 02:40:38;;;;;;;9.80;2.53;;;;;;;;;;5050821;28;20406;-61
2024/01/05 02:43:03;;;;;;;13.93;2.78;;;;;;;;;;5049855;28;20025;-60
2024/01/05 02:45:29;;;;;;;7.68;2.53;;;;;;;;;;5050147;28;20037;-61
2024/01/05 02:47:54;;;;;;;10.95;2.38;;;;;;;;;;5034214;28;20036;-61
2024/01/05 02:50:20;;;;;;;14.63;2.78;;;;;;;;;;5050893;28;20037;-60
2024/01/05 02:52:46;;;;;;;16.35;2.70;;;;;;;;;;5051431;28;20098;-60
2024/01/05 02:55:11;;;;;;;15.88;2.70;;;;;;;;;;5050819;28;20052;-60
2024/01/05 02:57:37;;;;;;;9.32;2.70;;;;;;;;;;5051480;28;20025;-60
2024/01/05 03:00:04;;;;;;;9.63;2.65;;;;;;;;;;5050556;28;20083;-61
2024/01/05 03:02:30;;;;;;;10.63;2.50;;;;;;;;;;5051518;28;20047;-60
2024/01/05 03:04:56;;;;;;;14.88;2.83;;;;;;;;;;5051266;28;20025;-60
2024/01/05 03:07:21;;;;;;;15.80;3.53;;;;;;;;;;5051020;28;20021;-60
2024/01/05 03:09:47;;;;;;;13.07;2.90;;;;;;;;;;5051645;28;20028;-61
2024/01/05 03:12:12;;;;;;;15.02;2.65;;;;;;;;;;5050820;28;20462;-61
2024/01/05 03:14:38;;;;;;;9.57;2.83;;;;;;;;;;5033989;28;20048;-61
2024/01/05 03:17:04;;;;;;;11.65;2.53;;;;;;;;;;5049712;28;20032;-62
2024/01/05 03:19:29;;;;;;;11.02;3.03;;;;;;;;;;5051880;28;20033;-61
2024/01/05 03:21:55;;;;;;;7.38;2.53;;;;;;;;;;5051510;28;20099;-61
2024/01/05 03:24:20;;;;;;;10.85;2.97;;;;;;;;;;5050719;28;20045;-61
2024/01/05 03:26:46;;;;;;;12.32;2.92;;;;;;;;;;5051442;28;20485;-61
2024/01/05 03:29:11;;;;;;;10.98;2.60;;;;;;;;;;5040749;28;20033;-62
2024/01/05 03:31:37;;;;;;;13.70;2.88;;;;;;;;;;5031509;28;20036;-60
2024/01/05 03:34:03;;;;;;;16.25;3.10;;;;;;;;;;5028441;28;20029;-62
2024/01/05 03:36:29;;;;;;;15.38;3.88;;;;;;;;;;5051295;28;20041;-62
2024/01/05 03:38:55;;;;;;;14.00;3.17;;;;;;;;;;5044923;28;20079;-62
2024/01/05 03:41:20;;;;;;;12.25;2.83;;;;;;;;;;5030874;28;20116;-60
2024/01/05 03:43:45;;;;;;;13.07;2.80;;;;;;;;;;5030357;28;20433;-61
2024/01/05 03:46:11;;;;;;;14.68;2.72;;;;;;;;;;5040662;28;20120;-61
2024/01/05 03:48:37;;;;;;;9.57;2.78;;;;;;;;;;5051390;28;20040;-61
2024/01/05 03:51:03;;;;;;;16.85;3.22;;;;;;;;;;5050046;28;20080;-61
2024/01/05 03:53:29;;;;;;;17.98;3.10;;;;;;;;;;5050163;28;20504;-61
2024/01/05 03:55:57;;;;;;;15.05;3.17;;;;;;;;;;5050972;28;20041;-60
2024/01/05 03:58:23;;;;;;;11.77;2.70;;;;;;;;;;5050518;28;20196;-62
2024/01/05 04:00:48;;;;;;;13.13;2.83;;;;;;;;;;5048825;28;20484;-60
2024/01/05 04:03:14;;;;;;;15.90;3.08;;;;;;;;;;5046859;28;20033;-60
2024/01/05 04:05:39;;;;;;;14.60;2.83;;;;;;;;;;5042392;28;20033;-60
2024/01/05 04:08:05;;;;;;;11.10;2.58;;;;;;;;;;5034600;28;20036;-60
2024/01/05 04:10:30;;;;;;;11.15;2.58;;;;;;;;;;5053395;28;20376;-62
2024/01/05 04:12:56;;;;;;;12.35;2.75;;;;;;;;;;5052757;28;20032;-62
2024/01/05 04:15:21;;;;;;;11.73;2.65;;;;;;;;;;5053805;28;20044;-61
2024/01/05 04:17:47;;;;;;;12.75;2.92;;;;;;;;;;5051365;28;20385;-61
2024/01/05 04:20:12;;;;;;;13.50;2.88;;;;;;;;;;5053651;28;20100;-66
2024/01/05 04:22:38;;;;;;;17.77;3.50;;;;;;;;;;5048967;28;20033;-61
2024/01/05 04:25:03;;;;;;;14.02;3.33;;;;;;;;;;5046687;28;20036;-61
2024/01/05 04:27:29;;;;;;;14.60;3.10;;;;;;;;;;5052683;28;20045;-61
2024/01/05 04:29:54;;;;;;;12.85;3.17;;;;;;;;;;5054538;28;20442;-61
2024/01/05 04:32:19;;;;;;;13.52;3.17;;;;;;;;;;5053418;28;20033;-61
2024/01/05 04:34:45;;;;;;;14.07;2.75;;;;;;;;;;5054007;28;20083;-61
2024/01/05 04:37:10;;;;;;;11.55;2.80;;;;;;;;;;5041601;28;20034;-61
2024/01/05 04:39:35;;;;;;;10.30;3.00;;;;;;;;;;5035600;28;20112;-61
2024/01/05 04:42:01;;;;;;;15.55;2.97;;;;;;;;;;5053717;28;20373;-62
2024/01/05 04:44:26;;;;;;;15.93;3.05;;;;;;;;;;5053446;28;20047;-61
2024/01/05 04:46:51;;;;;;;10.55;2.47;;;;;;;;;;5054307;28;20052;-61
2024/01/05 04:49:17;;;;;;;16.50;3.45;;;;;;;;;;5035461;28;20032;-61
2024/01/05 04:51:42;;;;;;;11.27;2.97;;;;;;;;;;5052030;28;20450;-61
2024/01/05 04:54:07;;;;;;;7.47;2.65;;;;;;;;;;5033652;28;20030;-61
2024/01/05 04:56:33;;;;;;;19.58;3.40;;;;;;;;;;5050602;28;20040;-61
2024/01/05 04:58:58;;;;;;;15.38;3.28;;;;;;;;;;5053202;28;20035;-61
2024/01/05 05:01:24;;;;;;;11.57;2.97;;;;;;;;;;5050406;28;20124;-61
2024/01/05 05:03:49;;;;;;;10.75;2.90;;;;;;;;;;5039148;28;20389;-62
2024/01/05 05:06:14;;;;;;;12.88;3.03;;;;;;;;;;5048887;28;20056;-63
2024/01/05 05:08:40;;;;;;;8.95;2.83;;;;;;;;;;5051998;28;20032;-62
2024/01/05 05:11:05;;;;;;;8.30;2.65;;;;;;;;;;5052925;28;20033;-61
2024/01/05 05:13:31;;;;;;;8.75;2.60;;;;;;;;;;5034321;28;20045;-62
2024/01/05 05:15:56;;;;;;;10.82;2.58;;;;;;;;;;5047492;28;20025;-62
2024/01/05 05:18:21;;;;;;;7.93;2.72;;;;;;;;;;5047657;28;20033;-63
2024/01/05 05:20:47;;;;;;;10.52;2.75;;;;;;;;;;5053218;28;20521;-62
2024/01/05 05:23:12;;;;;;;9.93;3.03;;;;;;;;;;5051556;28;20036;-61
2024/01/05 05:25:38;;;;;;;10.73;2.90;;;;;;;;;;5052344;28;20044;-62
2024/01/05 05:28:03;;;;;;;9.90;2.88;;;;;;;;;;5053399;28;20082;-62
2024/01/05 05:30:28;;;;;;;10.02;2.58;;;;;;;;;;5052259;28;20055;-62
2024/01/05 05:32:54;;;;;;;14.98;3.00;;;;;;;;;;5051114;28;20025;-61
2024/01/05 05:35:19;;;;;;;10.02;2.78;;;;;;;;;;5050255;28;20393;-61
2024/01/05 05:37:45;;;;;;;8.35;2.70;;;;;;;;;;5052055;28;20033;-62
2024/01/05 05:40:11;;;;;;;14.18;2.90;;;;;;;;;;5049042;28;20444;-61
2024/01/05 05:42:37;;;;;;;10.48;2.80;;;;;;;;;;5052002;28;20029;-62
2024/01/05 05:45:02;;;;;;;7.47;2.40;;;;;;;;;;5052969;28;20385;-61
2024/01/05 05:47:28;;;;;;;10.93;3.08;;;;;;;;;;5052203;28;20044;-63
2024/01/05 05:49:53;;;;;;;10.63;2.50;;;;;;;;;;5049917;28;20029;-61
2024/01/05 05:52:19;;;;;;;9.77;2.20;;;;;;;;;;5049731;28;20033;-62
2024/01/05 05:54:44;;;;;;;8.88;2.67;;;;;;;;;;5050125;28;20036;-62
2024/01/05 05:57:11;;;;;;;10.40;2.53;;;;;;;;;;5039184;28;20036;-62
2024/01/05 05:59:37;;;;;;;9.23;2.53;;;;;;;;;;5049890;28;20045;-62
2024/01/05 06:02:02;;;;;;;12.25;2.90;;;;;;;;;;5052553;28;20436;-62
2024/01/05 06:04:28;;;;;;;10.73;2.65;;;;;;;;;;5051014;28;20071;-62
2024/01/05 06:06:54;;;;;;;11.30;2.88;;;;;;;;;;5049500;28;20045;-62
2024/01/05 06:09:19;;;;;;;9.80;2.90;;;;;;;;;;5050686;28;20098;-62
2024/01/05 06:11:44;;;;;;;9.50;2.83;;;;;;;;;;5050330;28;20112;-62
2024/01/05 06:14:10;;;;;;;12.90;2.90;;;;;;;;;;5038274;28;20033;-62
2024/01/05 06:16:35;;;;;;;12.57;2.85;;;;;;;;;;5049496;28;20024;-62
2024/01/05 06:19:01;;;;;;;9.15;2.50;;;;;;;;;;5043292;28;20044;-62
2024/01/05 06:21:27;;;;;;;10.68;2.83;;;;;;;;;;5033153;28;20051;-63
2024/01/05 06:23:53;;;;;;;8.98;2.55;;;;;;;;;;5040282;28;20541;-62
2024/01/05 06:26:19;;;;;;;7.88;2.22;;;;;;;;;;5051370;28;20171;-63
2024/01/05 06:28:44;;;;;;;7.25;2.42;;;;;;;;;;5052067;28;20104;-63
2024/01/05 06:31:09;;;;;;;8.73;2.60;;;;;;;;;;5052336;28;20037;-62
2024/01/05 06:33:35;;;;;;;11.60;2.70;;;;;;;;;;5051083;28;20428;-62
2024/01/05 06:36:00;;;;;;;7.47;2.58;;;;;;;;;;5036421;28;20108;-62
2024/01/05 06:38:25;;;;;;;7.00;2.60;;;;;;;;;;5042721;28;20044;-64
2024/01/05 06:40:51;;;;;;;8.98;2.90;;;;;;;;;;5033957;28;20033;-64
2024/01/05 06:43:16;;;;;;;9.90;2.60;;;;;;;;;;5051280;28;20047;-66
2024/01/05 06:45:41;;;;;;;13.20;3.35;;;;;;;;;;5033635;28;20422;-62
2024/01/05 06:48:07;;;;;;;5.65;2.50;;;;;;;;;;5033962;28;20079;-63
2024/01/05 06:50:32;;;;;;;5.55;2.45;;;;;;;;;;5031124;28;20524;-63
2024/01/05 06:52:58;;;;;;;10.75;2.72;;;;;;;;;;5048156;28;20091;-62
2024/01/05 06:55:23;;;;;;;7.30;2.22;;;;;;;;;;5050736;28;20377;-65
2024/01/05 06:57:48;;;;;;;8.20;2.60;;;;;;;;;;5040499;28;20044;-64
2024/01/05 07:00:14;;;;;;;11.32;2.42;;;;;;;;;;5050744;28;20037;-65
2024/01/05 07:02:42;;;;;;;5.25;2.22;;;;;;;;;;5049368;28;20036;-63
2024/01/05 07:05:08;;;;;;;11.43;2.40;;;;;;;;;;5048677;28;20040;-62
2024/01/05 07:07:33;;;;;;;8.73;2.35;;;;;;;;;;5050943;28;20171;-65
2024/01/05 07:09:59;;;;;;;7.70;2.30;;;;;;;;;;5037591;28;20041;-63
2024/01/05 07:12:27;;;;;;;8.02;2.28;;;;;;;;;;5043601;28;20048;-65
2024/01/05 07:14:52;;;;;;;8.82;2.50;;;;;;;;;;5049369;28;20095;-63
2024/01/05 07:17:17;;;;;;;11.18;2.47;;;;;;;;;;5030893;28;20454;-64
2024/01/05 07:19:43;;;;;;;9.25;2.25;;;;;;;;;;5032360;28;20059;-63
2024/01/05 07:22:08;;;;;;;7.53;2.00;;;;;;;;;;5031567;28;20036;-63
2024/01/05 07:24:36;;;;;;;6.72;2.40;;;;;;;;;;5030466;28;20054;-63
2024/01/05 07:27:01;;;;;;;10.45;2.70;;;;;;;;;;5031618;28;20065;-62
2024/01/05 07:29:27;;;;;;;6.88;2.30;;;;;;;;;;5030687;28;20381;-63
2024/01/05 07:31:52;;;;;;;6.57;2.05;;;;;;;;;;5036376;28;20033;-63
2024/01/05 07:34:18;;;;;;;7.70;2.67;;;;;;;;;;5050018;28;20028;-63
2024/01/05 07:36:43;;;;;;;5.57;2.10;;;;;;;;;;5040518;28;20390;-63
2024/01/05 07:39:11;;;;;;;7.68;2.10;;;;;;;;;;5051102;28;20449;-63
2024/01/05 07:41:37;;;;;;;7.00;1.88;;;;;;;;;;5052676;28;20025;-63
2024/01/05 07:44:02;;;;;;;6.93;2.28;;;;;;;;;;5049513;28;20075;-64
2024/01/05 07:46:28;;;;;;;9.60;2.05;;;;;;;;;;5039489;28;20052;-63
2024/01/05 07:48:54;;;;;;;8.43;2.17;;;;;;;;;;5045444;28;20064;-63
2024/01/05 07:51:20;;;;;;;4.32;1.88;;;;;;;;;;5054264;28;20084;-63
2024/01/05 07:53:45;;;;;;;8.80;2.40;;;;;;;;;;5052125;28;20069;-62
2024/01/05 07:56:11;;;;;;;5.75;2.10;;;;;;;;;;5034809;28;20045;-62
2024/01/05 07:58:36;;;;;;;5.95;2.03;;;;;;;;;;5034260;28;20066;-63
2024/01/05 08:01:01;;;;;;;7.10;2.13;;;;;;;;;;5034892;28;20378;-62
2024/01/05 08:03:28;;;;;;;3.80;1.83;;;;;;;;;;5033998;28;20033;-63
2024/01/05 08:05:54;;;;;;;5.22;1.90;;;;;;;;;;5054741;28;20340;-62
2024/01/05 08:08:19;;;;;;;4.68;1.80;;;;;;;;;;5053156;28;20041;-64
2024/01/05 08:10:44;;;;;;;6.00;1.50;;;;;;;;;;5036952;28;20041;-62
2024/01/05 08:13:10;;;;;;;6.97;1.70;;;;;;;;;;5054894;28;20110;-62
2024/01/05 08:15:35;;;;;;;6.65;1.73;;;;;;;;;;5053397;28;20029;-62
2024/01/05 08:18:02;;;;;;;4.25;2.08;;;;;;;;;;5054398;28;20032;-62
2024/01/05 08:20:27;;;;;;;4.00;1.70;;;;;;;;;;5053715;28;20120;-63
2024/01/05 08:22:53;;;;;;;4.50;1.95;;;;;;;;;;5054648;28;20460;-62
2024/01/05 08:25:18;;;;;;;7.50;1.90;;;;;;;;;;5034554;28;20036;-63
2024/01/05 08:27:44;;;;;;;5.75;1.85;;;;;;;;;;5036689;28;20104;-63
2024/01/05 08:30:12;;;;;;;3.53;1.70;;;;;;;;;;5054124;28;20385;-63
2024/01/05 08:32:38;;;;;;;4.70;1.63;;;;;;;;;;5053995;28;20087;-63
2024/01/05 08:35:07;;;;;;;7.75;1.90;;;;;;;;;;5054440;28;20029;-63
2024/01/05 08:37:33;;;;;;;5.05;1.67;;;;;;;;;;5053231;28;20032;-62
2024/01/05 08:39:58;;;;;;;7.00;2.00;;;;;;;;;;5052878;28;20025;-63
2024/01/05 08:42:24;;;;;;;7.07;1.95;;;;;;;;;;5033180;28;20477;-63
2024/01/05 08:44:50;;;;;;;4.75;2.25;;;;;;;;;;5034444;28;20041;-64
2024/01/05 08:47:16;;;;;;;8.48;1.88;;;;;;;;;;5033505;28;20458;-63
2024/01/05 08:49:42;;;;;;;5.82;1.75;;;;;;;;;;5050071;28;20054;-63
2024/01/05 08:52:07;;;;;;;6.53;1.63;;;;;;;;;;5053585;28;20108;-63
2024/01/05 08:54:33;;;;;;;5.60;1.90;;;;;;;;;;5053314;28;20029;-62
2024/01/05 08:56:58;;;;;;;5.18;1.80;;;;;;;;;;5053797;28;20462;-63
2024/01/05 08:59:24;;;;;;;6.82;1.80;;;;;;;;;;5052144;28;20033;-62
2024/01/05 09:01:49;;;;;;;3.92;1.75;;;;;;;;;;5053680;28;20452;-61
2024/01/05 09:04:15;;;;;;;5.10;1.75;;;;;;;;;;5039294;28;20037;-62
2024/01/05 09:06:40;;;;;;;4.72;1.48;;;;;;;;;;5047753;28;20107;-63
2024/01/05 09:09:06;;;;;;;2.30;1.40;;;;;;;;;;5054043;28;20035;-62
2024/01/05 09:11:31;;;;;;;4.53;1.33;;;;;;;;;;5052749;28;20581;-61
2024/01/05 09:13:56;;;;;;;4.05;1.40;;;;;;;;;;5053412;28;20437;-61
2024/01/05 09:16:22;;;;;;;5.47;1.50;;;;;;;;;;5052957;28;20107;-63
2024/01/05 09:18:49;;;;;;;4.30;1.30;;;;;;;;;;5053899;28;20036;-62
2024/01/05 09:21:14;;;;;;;3.78;1.40;;;;;;;;;;5053036;28;20025;-63
2024/01/05 09:23:41;;;;;;;1.25;1.08;;;;;;;;;;5052609;28;20083;-62
2024/01/05 09:26:15;;;;;;;4.90;1.40;;;;;;;;;;5051473;28;20398;-63
2024/01/05 09:28:40;;;;;;;2.53;1.13;;;;;;;;;;5044314;28;20044;-62
2024/01/05 09:31:06;;;;;;;3.60;1.27;;;;;;;;;;5048300;28;20089;-63
2024/01/05 09:33:31;;;;;;;4.82;1.20;;;;;;;;;;5052337;28;20063;-63
2024/01/05 09:35:57;;;;;;;3.42;1.27;;;;;;;;;;5053348;28;20091;-62
2024/01/05 09:38:22;;;;;;;3.38;1.10;;;;;;;;;;5051752;28;20052;-63
2024/01/05 09:40:52;;;;;;;1.90;1.00;;;;;;;;;;5052911;28;20025;-63
2024/01/05 09:43:21;;;;;;;1.70;0.80;;;;;;;;;;5048186;28;20033;-64
2024/01/05 09:45:49;;;;;;;1.60;0.90;;;;;;;;;;5052398;28;20053;-61
2024/01/05 09:48:18;;;;;;;0.80;0.70;;;;;;;;;;5051175;28;20029;-64
2024/01/05 09:50:56;;;;;;;0.90;0.70;;;;;;;;;;5053184;28;20076;-61
2024/01/05 09:53:21;;;;;;;1.05;0.95;;;;;;;;;;5051148;28;20048;-64
2024/01/05 09:55:48;;;;;;;2.13;0.73;;;;;;;;;;5051128;28;20037;-63
2024/01/05 09:58:17;;;;;;;1.25;0.80;;;;;;;;;;5042430;28;20412;-63
2024/01/05 10:00:50;;;;;;;0.80;0.80;;;;;;;;;;5044116;28;20043;-64
2024/01/05 10:03:20;;;;;;;2.13;1.10;;;;;;;;;;5033392;28;20040;-64
2024/01/05 10:05:49;;;;;;;2.47;0.90;;;;;;;;;;5043857;28;20381;-63
2024/01/05 10:08:15;;;;;;;0.85;0.70;;;;;;;;;;5052097;28;20064;-62
2024/01/05 10:11:00;;;;;;;2.75;0.90;;;;;;;;;;5051486;28;20063;-63
2024/01/05 10:13:26;;;;;;;1.42;0.98;;;;;;;;;;5051543;28;20041;-64
2024/01/05 10:15:55;;;;;;;0.70;0.57;;;;;;;;;;5048853;28;20049;-63
2024/01/05 10:18:21;;;;;;;0.75;0.75;;;;;;;;;;5046800;28;20064;-63
2024/01/05 10:20:47;;;;;;;4.75;0.70;;;;;;;;;;5051856;28;20176;-63
2024/01/05 10:23:13;;;;;;;0.90;0.60;;;;;;;;;;5052464;28;20130;-63
2024/01/05 10:25:39;;;;;;;3.60;1.00;;;;;;;;;;5051494;28;20045;-62
2024/01/05 10:28:24;;;;;;;0.75;0.75;;;;;;;;;;5052335;28;20090;-62
2024/01/05 10:30:49;;;;;;;1.23;0.80;;;;;;;;;;5034409;28;20119;-61
2024/01/05 10:33:18;;;;;;;1.13;0.80;;;;;;;;;;5051232;28;20163;-61
2024/01/05 10:35:43;;;;;;;1.83;0.70;;;;;;;;;;5051667;28;20090;-62
2024/01/05 10:38:11;;;;;;;1.50;0.93;;;;;;;;;;5051329;28;20033;-63
2024/01/05 10:40:37;;;;;;;2.47;0.85;;;;;;;;;;5049263;28;20552;-62
2024/01/05 10:43:12;;;;;;;0.93;0.80;;;;;;;;;;5051442;28;20116;-61
2024/01/05 10:45:39;;;;;;;0.88;0.70;;;;;;;;;;5050351;28;20385;-62
2024/01/05 10:48:08;;;;;;;2.70;0.82;;;;;;;;;;5051914;28;20040;-62
2024/01/05 10:50:34;;;;;;;0.80;0.80;;;;;;;;;;5050228;28;20087;-63
2024/01/05 10:53:02;;;;;;;2.17;0.88;;;;;;;;;;5051205;28;20526;-62
2024/01/05 10:55:28;;;;;;;0.80;0.80;;;;;;;;;;5041612;28;20052;-63
2024/01/05 10:57:54;;;;;;;0.60;0.60;;;;;;;;;;5031768;28;20039;-61
2024/01/05 11:00:24;;;;;;;1.13;0.70;;;;;;;;;;5030534;28;20111;-62
2024/01/05 11:02:59;;;;;;;1.30;0.70;;;;;;;;;;5045277;28;20025;-62
2024/01/05 11:05:27;;;;;;;2.20;1.00;;;;;;;;;;5050498;28;20017;-62
2024/01/05 11:07:54;;;;;;;2.22;1.00;;;;;;;;;;5034789;28;20131;-62
2024/01/05 11:10:39;;;;;;;1.40;0.80;;;;;;;;;;5050609;28;20029;-62
2024/01/05 11:13:24;;;;;;;0.77;0.77;;;;;;;;;;5050994;28;20454;-63
2024/01/05 11:16:40;;;;;;;1.70;0.73;;;;;;;;;;5050685;28;20385;-63
2024/01/05 11:19:36;;;;;;;1.05;0.70;;;;;;;;;;4988399;28;20049;-63
2024/01/05 11:22:25;;;;;;;0.82;0.55;;;;;;;;;;5050903;28;20104;-63
2024/01/05 11:24:51;;;;;;;1.58;0.88;;;;;;;;;;5051280;28;20072;-63
2024/01/05 11:27:37;;;;;;;2.22;0.88;;;;;;;;;;5045511;28;20037;-62
2024/01/05 11:30:03;;;;;;;2.08;0.93;;;;;;;;;;5037390;28;20083;-64
2024/01/05 11:32:45;;;;;;;2.38;1.08;;;;;;;;;;5050142;28;20443;-65
2024/01/05 11:35:36;;;;;;;0.80;0.80;;;;;;;;;;5051238;28;20124;-64
2024/01/05 11:38:07;;;;;;;0.80;0.80;;;;;;;;;;5031236;28;20049;-64
2024/01/05 11:40:33;;;;;;;1.08;0.90;;;;;;;;;;5030635;28;20037;-63
2024/01/05 11:43:19;;;;;;;1.70;0.93;;;;;;;;;;5046151;28;20412;-64
2024/01/05 11:45:44;;;;;;;0.85;0.80;;;;;;;;;;5040525;28;20591;-64
2024/01/05 11:48:10;;;;;;;2.15;0.85;;;;;;;;;;5050315;28;20104;-62
2024/01/05 11:50:37;;;;;;;0.80;0.80;;;;;;;;;;5031511;28;20117;-62
2024/01/05 11:53:05;;;;;;;1.55;0.73;;;;;;;;;;5050602;28;20079;-62
2024/01/05 11:55:35;;;;;;;1.00;0.90;;;;;;;;;;5049921;28;20135;-62
2024/01/05 11:58:01;;;;;;;1.55;0.90;;;;;;;;;;5034328;28;20115;-61
2024/01/05 12:00:26;;;;;;;1.52;0.90;;;;;;;;;;5050024;28;20120;-62
2024/01/05 12:03:02;;;;;;;0.95;0.85;;;;;;;;;;5050770;28;20044;-61
2024/01/05 12:05:28;;;;;;;1.50;0.80;;;;;;;;;;5049088;28;20059;-62
2024/01/05 12:07:57;;;;;;;2.08;1.10;;;;;;;;;;5050907;28;20461;-62
2024/01/05 12:10:30;;;;;;;2.30;0.95;;;;;;;;;;5050039;28;20044;-62
2024/01/05 12:12:56;;;;;;;0.68;0.68;;;;;;;;;;5033027;28;20461;-63
2024/01/05 12:15:22;;;;;;;1.55;0.80;;;;;;;;;;5049908;28;20039;-62
2024/01/05 12:17:48;;;;;;;2.17;1.20;;;;;;;;;;5049164;28;20032;-63
2024/01/05 12:20:14;;;;;;;3.78;1.02;;;;;;;;;;5038768;28;20033;-64
2024/01/05 12:22:41;;;;;;;1.25;0.90;;;;;;;;;;5031258;28;20401;-63
2024/01/05 12:25:06;;;;;;;1.42;0.90;;;;;;;;;;5032419;28;20040;-62
2024/01/05 12:27:39;;;;;;;1.58;1.00;;;;;;;;;;5049228;28;20477;-63
2024/01/05 12:30:05;;;;;;;4.60;1.20;;;;;;;;;;5051658;28;20033;-63
2024/01/05 12:32:34;;;;;;;2.38;1.08;;;;;;;;;;5033705;28;20087;-63
2024/01/05 12:35:04;;;;;;;1.15;0.95;;;;;;;;;;5034401;28;20113;-63
2024/01/05 12:37:30;;;;;;;1.55;0.80;;;;;;;;;;5033640;28;20091;-63
2024/01/05 12:40:12;;;;;;;3.70;1.10;;;;;;;;;;5053238;28;20033;-64
2024/01/05 12:42:38;;;;;;;2.42;0.95;;;;;;;;;;5053020;28;20122;-64
2024/01/05 12:45:10;;;;;;;2.72;1.20;;;;;;;;;;5054215;28;20037;-65
2024/01/05 12:47:36;;;;;;;1.42;1.00;;;;;;;;;;5052410;28;20078;-63
2024/01/05 12:50:05;;;;;;;0.80;0.80;;;;;;;;;;5054277;28;20040;-65
2024/01/05 12:52:36;;;;;;;1.85;0.90;;;;;;;;;;5053152;28;20120;-62
2024/01/05 12:55:03;;;;;;;2.55;1.25;;;;;;;;;;5035843;28;20028;-63
2024/01/05 12:57:29;;;;;;;2.45;0.80;;;;;;;;;;5053064;28;20041;-63
2024/01/05 13:00:07;;;;;;;2.90;1.00;;;;;;;;;;5051387;28;20029;-62
2024/01/05 13:02:38;;;;;;;4.38;1.17;;;;;;;;;;5015416;28;20486;-62
2024/01/05 13:05:36;;;;;;;2.05;1.10;;;;;;;;;;5053472;28;20037;-62
2024/01/05 13:08:02;;;;;;;1.30;1.05;;;;;;;;;;5002867;28;20053;-62
2024/01/05 13:10:27;;;;;;;3.67;1.40;;;;;;;;;;5052724;28;20098;-63
2024/01/05 13:12:53;;;;;;;3.72;1.40;;;;;;;;;;5052633;28;20535;-63
2024/01/05 13:15:19;;;;;;;1.95;0.93;;;;;;;;;;5053328;28;20028;-63
2024/01/05 13:17:46;;;;;;;1.58;0.90;;;;;;;;;;5052789;28;20444;-62
2024/01/05 13:20:24;;;;;;;0.95;0.90;;;;;;;;;;5053489;28;20041;-63
2024/01/05 13:23:00;;;;;;;1.63;0.85;;;;;;;;;;5053356;28;20033;-61
2024/01/05 13:25:25;;;;;;;1.98;1.00;;;;;;;;;;5046178;28;20367;-62
2024/01/05 13:27:51;;;;;;;3.50;1.00;;;;;;;;;;5044668;28;20036;-62
2024/01/05 13:30:16;;;;;;;1.20;0.82;;;;;;;;;;5052773;28;20484;-63
2024/01/05 13:32:44;;;;;;;1.80;1.17;;;;;;;;;;5051078;28;20032;-62
2024/01/05 13:35:10;;;;;;;3.47;1.30;;;;;;;;;;5047348;28;20056;-62
2024/01/05 13:37:36;;;;;;;1.80;0.90;;;;;;;;;;5051461;28;20040;-61
2024/01/05 13:40:02;;;;;;;2.70;1.20;;;;;;;;;;5038438;28;20117;-61
2024/01/05 13:42:28;;;;;;;3.35;1.10;;;;;;;;;;5051174;28;20108;-60
2024/01/05 13:44:55;;;;;;;2.03;1.30;;;;;;;;;;5052956;28;20021;-63
2024/01/05 13:47:20;;;;;;;2.90;1.17;;;;;;;;;;5052323;28;20072;-64
2024/01/05 13:49:45;;;;;;;1.60;1.20;;;;;;;;;;5052278;28;20515;-61
2024/01/05 13:52:11;;;;;;;2.13;1.20;;;;;;;;;;5052902;28;20076;-62
2024/01/05 13:54:36;;;;;;;3.92;1.23;;;;;;;;;;5051672;28;20052;-62
2024/01/05 13:57:02;;;;;;;3.78;1.30;;;;;;;;;;5034894;28;20369;-63
2024/01/05 13:59:28;;;;;;;3.28;1.23;;;;;;;;;;5051672;28;20169;-62
2024/01/05 14:01:53;;;;;;;1.85;1.08;;;;;;;;;;5052355;28;20107;-62
2024/01/05 14:04:20;;;;;;;1.40;1.05;;;;;;;;;;5052509;28;20029;-61
2024/01/05 14:06:45;;;;;;;1.48;0.90;;;;;;;;;;5051836;28;20473;-62
2024/01/05 14:09:11;;;;;;;3.85;1.25;;;;;;;;;;5052708;28;20071;-63
2024/01/05 14:11:36;;;;;;;3.25;1.30;;;;;;;;;;5051807;28;20377;-62
2024/01/05 14:14:01;;;;;;;2.67;1.40;;;;;;;;;;5034646;28;20044;-62
2024/01/05 14:16:27;;;;;;;4.45;1.33;;;;;;;;;;5050377;28;20033;-63
2024/01/05 14:18:54;;;;;;;4.28;1.05;;;;;;;;;;5052468;28;20033;-62
2024/01/05 14:21:23;;;;;;;1.40;1.00;;;;;;;;;;5052403;28;20029;-62
2024/01/05 14:23:48;;;;;;;2.83;1.10;;;;;;;;;;5034036;28;20358;-62
2024/01/05 14:26:14;;;;;;;3.92;1.27;;;;;;;;;;5050934;28;20033;-63
2024/01/05 14:28:40;;;;;;;1.30;1.13;;;;;;;;;;5047713;28;20160;-63
2024/01/05 14:31:06;;;;;;;5.60;1.60;;;;;;;;;;5051439;28;20044;-62
2024/01/05 14:33:32;;;;;;;2.30;1.42;;;;;;;;;;5048885;28;20066;-63
2024/01/05 14:36:01;;;;;;;4.50;1.40;;;;;;;;;;5053450;28;20107;-63